createdAt,value
2023-07-03T00:03:00.990Z,82.78
2023-07-03T00:06:04.150Z,83.19
2023-07-03T00:09:06.968Z,81.68
2023-07-03T00:12:12.083Z,83.64
2023-07-03T00:15:16.312Z,82.24
2023-07-03T00:18:19.385Z,83.66
2023-07-03T00:21:22.160Z,85.11
2023-07-03T00:24:25.210Z,85.65
2023-07-03T00:27:27.963Z,86.25
2023-07-03T00:30:31.338Z,85.81
2023-07-03T00:33:34.114Z,85.02
2023-07-03T00:36:37.166Z,85.30
2023-07-03T00:39:40.206Z,84.24
2023-07-03T00:42:43.380Z,86.25
2023-07-03T00:45:46.999Z,86.45
2023-07-03T00:48:51.748Z,86.10
2023-07-03T00:51:57.256Z,85.60
2023-07-03T00:55:00.350Z,85.40
2023-07-03T00:58:03.624Z,85.32
2023-07-03T01:01:35.815Z,84.87
2023-07-03T01:04:50.568Z,85.63
2023-07-03T01:07:54.959Z,86.44
2023-07-03T01:10:58.483Z,86.25
2023-07-03T01:14:03.272Z,85.93
2023-07-03T01:17:11.318Z,85.99
2023-07-03T01:20:19.355Z,87.70
2023-07-03T01:23:29.844Z,86.30
2023-07-03T01:26:34.374Z,86.41
2023-07-03T01:29:41.445Z,86.52
2023-07-03T01:32:47.989Z,87.37
2023-07-03T01:35:53.012Z,87.47
2023-07-03T01:38:56.995Z,87.20
2023-07-03T01:42:00.478Z,86.25
2023-07-03T01:45:04.277Z,86.69
2023-07-03T01:48:07.491Z,87.27
2023-07-03T01:51:14.149Z,88.08
2023-07-03T01:54:30.893Z,88.26
2023-07-03T01:57:47.950Z,88.81
2023-07-03T02:01:16.699Z,88.02
2023-07-03T02:04:47.133Z,91.34
2023-07-03T02:07:54.653Z,91.64
2023-07-03T02:10:59.174Z,92.53
2023-07-03T02:14:02.994Z,91.26
2023-07-03T02:17:07.767Z,91.58
2023-07-03T02:20:18.169Z,90.83
2023-07-03T02:23:22.983Z,90.37
2023-07-03T02:26:26.011Z,90.97
2023-07-03T02:29:29.072Z,90.75
2023-07-03T02:32:37.869Z,90.82
2023-07-03T02:35:42.786Z,91.58
2023-07-03T02:38:46.461Z,91.88
2023-07-03T02:41:49.436Z,91.18
2023-07-03T02:44:53.306Z,93.07
2023-07-03T02:47:56.148Z,91.20
2023-07-03T02:51:00.035Z,91.72
2023-07-03T02:54:05.872Z,90.82
2023-07-03T02:57:08.999Z,92.07
2023-07-03T03:00:12.692Z,91.89
2023-07-03T03:03:16.330Z,93.23
2023-07-03T03:06:19.270Z,93.39
2023-07-03T03:09:24.657Z,92.93
2023-07-03T03:12:28.229Z,94.09
2023-07-03T03:15:35.541Z,95.24
2023-07-03T03:18:38.309Z,93.21
2023-07-03T03:21:41.480Z,94.84
2023-07-03T03:24:44.998Z,94.96
2023-07-03T03:27:48.104Z,95.22
2023-07-03T03:30:51.098Z,94.86
2023-07-03T03:33:54.270Z,94.96
2023-07-03T03:36:57.735Z,95.41
2023-07-03T03:40:01.058Z,95.59
2023-07-03T03:43:04.164Z,96.22
2023-07-03T03:46:07.299Z,96.56
2023-07-03T03:49:11.973Z,96.76
2023-07-03T03:52:15.134Z,96.54
2023-07-03T03:55:18.124Z,96.64
2023-07-03T03:58:24.527Z,96.91
2023-07-03T04:01:27.646Z,96.25
2023-07-03T04:04:30.984Z,95.75
2023-07-03T04:07:33.849Z,95.79
2023-07-03T04:10:37.592Z,95.29
2023-07-03T04:13:40.434Z,96.76
2023-07-03T04:16:45.026Z,96.09
2023-07-03T04:19:47.811Z,95.51
2023-07-03T04:22:50.809Z,96.46
2023-07-03T04:25:54.366Z,95.46
2023-07-03T04:28:57.644Z,95.54
2023-07-03T04:32:00.589Z,93.83
2023-07-03T04:35:04.112Z,93.34
2023-07-03T04:38:07.264Z,93.02
2023-07-03T04:41:10.438Z,92.85
2023-07-03T04:44:13.758Z,92.46
2023-07-03T04:47:18.294Z,91.65
2023-07-03T04:50:26.552Z,90.86
2023-07-03T04:53:29.845Z,90.24
2023-07-03T04:56:35.114Z,89.88
2023-07-03T04:59:39.093Z,89.42
2023-07-03T05:02:43.087Z,89.37
2023-07-03T05:05:46.249Z,88.94
2023-07-03T05:08:49.117Z,88.45
2023-07-03T05:11:53.397Z,87.14
2023-07-03T05:14:58.330Z,86.89
2023-07-03T05:18:01.685Z,86.74
2023-07-03T05:21:07.501Z,85.89
2023-07-03T05:24:10.691Z,84.98
2023-07-03T05:27:13.404Z,84.69
2023-07-03T05:30:16.702Z,84.13
2023-07-03T05:33:19.475Z,83.04
2023-07-03T05:36:22.794Z,80.85
2023-07-03T05:39:26.290Z,78.85
2023-07-03T05:42:29.427Z,76.72
2023-07-03T05:45:32.164Z,75.18
2023-07-03T05:48:36.723Z,74.79
2023-07-03T05:51:39.613Z,73.56
2023-07-03T05:54:42.645Z,71.68
2023-07-03T05:57:45.616Z,71.97
2023-07-03T06:00:49.808Z,72.15
2023-07-03T06:03:53.061Z,70.54
2023-07-03T06:06:57.186Z,70.33
2023-07-03T06:10:00.394Z,69.66
2023-07-03T06:13:03.471Z,68.86
2023-07-03T06:16:06.758Z,68.67
2023-07-03T06:19:10.549Z,68.47
2023-07-03T06:22:13.575Z,66.65
2023-07-03T06:25:16.657Z,65.96
2023-07-03T06:28:20.278Z,66.12
2023-07-03T06:31:23.640Z,62.81
2023-07-03T06:34:27.602Z,63.63
2023-07-03T06:37:30.327Z,61.27
2023-07-03T06:40:33.606Z,61.61
2023-07-03T06:43:36.963Z,61.71
2023-07-03T06:46:40.625Z,63.12
2023-07-03T06:49:43.629Z,61.42
2023-07-03T06:52:48.713Z,59.30
2023-07-03T06:55:59.070Z,60.08
2023-07-03T06:59:02.461Z,59.91
2023-07-03T07:02:08.655Z,59.24
2023-07-03T07:05:12.592Z,58.48
2023-07-03T07:08:18.064Z,57.65
2023-07-03T07:11:39.495Z,56.28
2023-07-03T07:14:42.255Z,55.36
2023-07-03T07:17:51.955Z,55.42
2023-07-03T07:20:56.207Z,54.42
2023-07-03T07:24:12.712Z,55.19
2023-07-03T07:27:15.641Z,53.06
2023-07-03T07:30:18.912Z,52.43
2023-07-03T07:33:23.960Z,52.25
2023-07-03T07:36:27.918Z,51.91
2023-07-03T07:39:32.013Z,51.73
2023-07-03T07:42:35.773Z,49.74
2023-07-03T07:45:38.890Z,48.26
2023-07-03T07:48:42.305Z,47.97
2023-07-03T07:51:45.065Z,45.61
2023-07-03T07:54:48.611Z,46.24
2023-07-03T07:57:51.673Z,45.97
2023-07-03T08:00:56.131Z,45.78
2023-07-03T08:03:59.235Z,44.77
2023-07-03T08:07:02.102Z,43.83
2023-07-03T08:10:06.004Z,44.03
2023-07-03T08:13:09.299Z,43.69
2023-07-03T08:16:13.050Z,42.32
2023-07-03T08:19:16.106Z,41.68
2023-07-03T08:22:19.393Z,40.61
2023-07-03T08:25:22.845Z,39.96
2023-07-03T08:28:26.245Z,39.88
2023-07-03T08:31:29.492Z,37.58
2023-07-03T08:34:32.831Z,37.69
2023-07-03T08:37:35.681Z,38.71
2023-07-03T08:40:39.050Z,37.21
2023-07-03T08:43:48.592Z,36.11
2023-07-03T08:47:06.515Z,35.19
2023-07-03T08:50:28.122Z,35.27
2023-07-03T08:53:41.809Z,37.16
2023-07-03T08:56:44.755Z,36.39
2023-07-03T08:59:49.367Z,35.22
2023-07-03T09:03:48.412Z,34.20
2023-07-03T09:07:00.777Z,32.63
2023-07-03T09:10:13.148Z,32.41
2023-07-03T09:13:30.791Z,30.87
2023-07-03T09:16:34.054Z,29.91
2023-07-03T09:19:39.594Z,31.79
2023-07-03T09:22:50.754Z,30.20
2023-07-03T09:26:05.177Z,31.10
2023-07-03T09:29:08.542Z,31.14
2023-07-03T09:32:25.767Z,30.14
2023-07-03T09:35:42.368Z,29.46
2023-07-03T09:38:45.474Z,29.79
2023-07-03T09:41:48.456Z,27.99
2023-07-03T09:44:52.091Z,27.76
2023-07-03T09:47:59.734Z,28.54
2023-07-03T09:51:08.760Z,28.10
2023-07-03T09:54:24.806Z,28.91
2023-07-03T09:57:28.923Z,28.90
2023-07-03T10:00:31.880Z,29.36
2023-07-03T10:03:36.920Z,30.47
2023-07-03T10:06:41.235Z,30.71
2023-07-03T10:13:05.863Z,30.78
2023-07-03T10:16:10.485Z,32.20
2023-07-03T10:19:15.133Z,30.44
2023-07-03T10:22:20.140Z,31.34
2023-07-03T10:25:30.725Z,31.50
2023-07-03T10:28:40.086Z,32.50
2023-07-03T10:31:51.138Z,32.81
2023-07-03T10:35:11.065Z,33.89
2023-07-03T10:38:56.529Z,33.45
2023-07-03T10:42:05.437Z,33.70
2023-07-03T10:45:15.671Z,34.10
2023-07-03T10:48:28.066Z,35.18
2023-07-03T10:51:54.465Z,35.70
2023-07-03T10:55:10.029Z,36.35
2023-07-03T10:58:32.714Z,36.56
2023-07-03T11:01:51.903Z,35.32
2023-07-03T11:05:21.504Z,35.31
2023-07-03T11:09:04.898Z,35.76
2023-07-03T11:12:15.370Z,35.26
2023-07-03T11:15:35.228Z,36.64
2023-07-03T11:25:33.374Z,35.88
2023-07-03T11:28:39.331Z,36.37
2023-07-03T11:31:44.717Z,35.19
2023-07-03T11:44:19.218Z,36.97
2023-07-03T11:47:29.415Z,37.83
2023-07-03T11:50:35.411Z,39.07
2023-07-03T11:53:49.082Z,38.66
2023-07-03T11:56:57.575Z,38.37
2023-07-03T12:00:24.161Z,39.20
2023-07-03T12:04:04.222Z,39.72
2023-07-03T12:07:07.371Z,39.13
2023-07-03T12:10:30.814Z,40.27
2023-07-03T12:13:43.008Z,39.96
2023-07-03T12:16:49.125Z,40.78
2023-07-03T12:19:56.594Z,40.50
2023-07-03T12:23:00.873Z,40.98
2023-07-03T12:26:17.012Z,41.86
2023-07-03T12:29:23.249Z,41.15
2023-07-03T12:32:35.824Z,40.35
2023-07-03T12:35:44.458Z,40.80
2023-07-03T12:38:47.598Z,40.10
2023-07-03T12:41:50.891Z,39.32
2023-07-03T12:44:54.150Z,40.09
2023-07-03T12:48:04.270Z,40.50
2023-07-03T12:51:07.842Z,41.26
2023-07-03T12:54:13.693Z,40.99
2023-07-03T12:57:16.833Z,41.74
2023-07-03T13:00:26.572Z,41.59
2023-07-03T13:03:29.629Z,41.13
2023-07-03T13:06:34.724Z,41.62
2023-07-03T13:09:44.246Z,41.84
2023-07-03T13:13:07.459Z,40.21
2023-07-03T13:16:16.215Z,39.10
2023-07-03T13:19:49.774Z,39.74
2023-07-03T13:22:56.393Z,39.34
2023-07-03T13:26:01.558Z,39.66
2023-07-03T13:29:07.030Z,39.59
2023-07-03T13:32:18.852Z,38.61
2023-07-03T13:35:31.287Z,39.07
2023-07-03T13:38:34.376Z,38.90
2023-07-03T13:41:39.133Z,38.49
2023-07-03T13:44:42.191Z,39.36
2023-07-03T13:47:45.164Z,41.79
2023-07-03T13:50:50.895Z,42.20
2023-07-03T13:54:03.188Z,41.75
2023-07-03T13:57:14.127Z,41.91
2023-07-03T14:00:17.973Z,42.26
2023-07-03T14:03:21.888Z,42.72
2023-07-03T14:06:25.349Z,42.78
2023-07-03T14:09:28.828Z,42.94
2023-07-03T14:12:31.552Z,43.10
2023-07-03T14:15:36.981Z,43.91
2023-07-03T14:18:40.273Z,44.06
2023-07-03T14:21:44.104Z,44.35
2023-07-03T14:24:46.906Z,44.60
2023-07-03T14:27:50.873Z,44.57
2023-07-03T14:30:54.315Z,44.37
2023-07-03T14:33:57.514Z,44.95
2023-07-03T14:37:04.656Z,45.38
2023-07-03T14:40:08.458Z,46.28
2023-07-03T14:43:11.513Z,46.69
2023-07-03T14:46:14.717Z,46.76
2023-07-03T14:49:17.610Z,46.41
2023-07-03T14:52:21.358Z,47.57
2023-07-03T14:55:24.148Z,47.13
2023-07-03T14:58:27.486Z,47.30
2023-07-03T15:01:30.483Z,47.71
2023-07-03T15:04:34.155Z,47.78
2023-07-03T15:07:37.388Z,47.87
2023-07-03T15:10:40.528Z,47.86
2023-07-03T15:13:43.751Z,48.06
2023-07-03T15:16:47.241Z,47.90
2023-07-03T15:19:50.092Z,47.98
2023-07-03T15:22:54.042Z,47.81
2023-07-03T15:26:07.319Z,48.03
2023-07-03T15:29:10.358Z,47.50
2023-07-03T15:32:13.686Z,47.24
2023-07-03T15:35:16.880Z,47.63
2023-07-03T15:38:20.033Z,46.34
2023-07-03T15:41:23.037Z,46.77
2023-07-03T15:44:25.786Z,46.86
2023-07-03T15:47:29.096Z,47.09
2023-07-03T15:50:31.902Z,48.15
2023-07-03T15:53:36.140Z,47.37
2023-07-03T15:56:39.530Z,47.20
2023-07-03T15:59:43.746Z,46.23
2023-07-03T16:02:46.941Z,45.52
2023-07-03T16:06:04.908Z,45.30
2023-07-03T16:09:08.188Z,44.62
2023-07-03T16:12:11.233Z,44.40
2023-07-03T16:15:14.127Z,45.15
2023-07-03T16:18:17.226Z,45.74
2023-07-03T16:21:22.578Z,45.82
2023-07-03T16:24:26.820Z,46.43
2023-07-03T16:27:29.572Z,46.40
2023-07-03T16:30:32.803Z,47.75
2023-07-03T16:33:38.930Z,49.28
2023-07-03T16:36:42.142Z,48.56
2023-07-03T16:39:45.371Z,48.21
2023-07-03T16:42:48.762Z,48.51
2023-07-03T16:45:54.202Z,48.08
2023-07-03T16:48:59.381Z,48.37
2023-07-03T16:52:02.509Z,49.26
2023-07-03T16:55:06.085Z,48.66
2023-07-03T16:58:09.426Z,49.11
2023-07-03T17:01:16.529Z,49.54
2023-07-03T17:04:19.582Z,49.70
2023-07-03T17:07:23.923Z,50.35
2023-07-03T17:10:27.339Z,50.70
2023-07-03T17:13:32.183Z,50.52
2023-07-03T17:16:36.519Z,51.31
2023-07-03T17:19:39.707Z,51.17
2023-07-03T17:22:42.842Z,51.78
2023-07-03T17:25:48.861Z,52.37
2023-07-03T17:28:52.375Z,53.14
2023-07-03T17:31:56.268Z,52.85
2023-07-03T17:34:59.959Z,51.84
2023-07-03T17:38:04.504Z,52.02
2023-07-03T17:41:08.567Z,53.26
2023-07-03T17:44:13.459Z,53.68
2023-07-03T17:47:17.215Z,52.98
2023-07-03T17:50:20.649Z,52.75
2023-07-03T17:53:24.798Z,52.99
2023-07-03T17:56:29.442Z,52.69
2023-07-03T17:59:32.908Z,52.63
2023-07-03T18:02:36.484Z,52.70
2023-07-03T18:05:41.233Z,52.98
2023-07-03T18:08:44.867Z,53.20
2023-07-03T18:11:49.631Z,53.25
2023-07-03T18:14:53.984Z,53.64
2023-07-03T18:17:58.606Z,53.87
2023-07-03T18:21:02.151Z,53.92
2023-07-03T18:24:06.854Z,54.69
2023-07-03T18:27:10.709Z,57.29
2023-07-03T18:30:15.966Z,57.16
2023-07-03T18:33:19.775Z,56.43
2023-07-03T18:36:24.712Z,56.20
2023-07-03T18:39:28.447Z,56.27
2023-07-03T18:42:32.656Z,56.97
2023-07-03T18:45:36.134Z,56.62
2023-07-03T18:48:40.676Z,56.63
2023-07-03T18:51:43.808Z,56.98
2023-07-03T18:54:47.053Z,57.80
2023-07-03T18:57:50.600Z,57.59
2023-07-03T19:00:53.659Z,58.21
2023-07-03T19:03:58.616Z,58.76
2023-07-03T19:07:02.524Z,59.19
2023-07-03T19:10:17.544Z,60.07
2023-07-03T19:13:23.031Z,61.61
2023-07-03T19:16:26.205Z,61.73
2023-07-03T19:19:30.059Z,62.93
2023-07-03T19:22:34.120Z,63.49
2023-07-03T19:25:38.243Z,64.25
2023-07-03T19:28:45.442Z,64.04
2023-07-03T19:31:52.008Z,65.08
2023-07-03T19:34:55.019Z,65.21
2023-07-03T19:38:00.662Z,65.62
2023-07-03T19:41:05.433Z,65.58
2023-07-03T19:44:10.209Z,65.80
2023-07-03T19:47:13.935Z,68.25
2023-07-03T19:50:18.757Z,67.17
2023-07-03T19:53:22.282Z,67.70
2023-07-03T19:56:26.366Z,67.47
2023-07-03T19:59:30.056Z,68.25
2023-07-03T20:02:35.858Z,68.84
2023-07-03T20:05:43.088Z,68.12
2023-07-03T20:08:50.651Z,68.52
2023-07-03T20:11:55.233Z,68.95
2023-07-03T20:14:59.494Z,69.08
2023-07-03T20:18:03.965Z,69.31
2023-07-03T20:21:11.970Z,68.65
2023-07-03T20:24:16.798Z,68.84
2023-07-03T20:27:20.009Z,70.07
2023-07-03T20:30:23.928Z,70.25
2023-07-03T20:33:27.029Z,69.07
2023-07-03T20:36:31.160Z,69.02
2023-07-03T20:39:36.092Z,69.69
2023-07-03T20:42:39.445Z,69.14
2023-07-03T20:45:43.068Z,67.84
2023-07-03T20:48:55.561Z,67.42
2023-07-03T20:52:00.485Z,67.05
2023-07-03T20:55:13.504Z,67.64
2023-07-03T20:58:16.494Z,68.16
2023-07-03T21:01:24.112Z,68.52
2023-07-03T21:04:26.949Z,68.99
2023-07-03T21:07:30.326Z,69.36
2023-07-03T21:10:33.191Z,67.90
2023-07-03T21:13:38.909Z,67.89
2023-07-03T21:16:42.443Z,68.22
2023-07-03T21:19:45.672Z,69.40
2023-07-03T21:22:48.893Z,70.14
2023-07-03T21:25:52.336Z,71.09
2023-07-03T21:28:55.815Z,70.40
2023-07-03T21:31:59.119Z,70.55
2023-07-03T21:35:02.161Z,71.00
2023-07-03T21:38:05.332Z,70.62
2023-07-03T21:41:10.161Z,69.65
2023-07-03T21:44:16.923Z,68.63
2023-07-03T21:47:19.878Z,68.56
2023-07-03T21:50:23.723Z,68.92
2023-07-03T21:53:27.524Z,68.27
2023-07-03T21:56:32.028Z,67.63
2023-07-03T21:59:34.879Z,67.50
2023-07-03T22:02:38.145Z,68.47
2023-07-03T22:05:41.337Z,67.78
2023-07-03T22:08:44.193Z,67.75
2023-07-03T22:11:48.336Z,66.95
2023-07-03T22:14:51.399Z,68.65
2023-07-03T22:17:54.597Z,69.42
2023-07-03T22:20:57.368Z,68.75
2023-07-03T22:24:00.945Z,69.28
2023-07-03T22:27:05.441Z,68.23
2023-07-03T22:30:09.233Z,69.39
2023-07-03T22:33:11.943Z,69.80
2023-07-03T22:36:15.437Z,70.18
2023-07-03T22:39:18.420Z,70.35
2023-07-03T22:42:21.641Z,71.18
2023-07-03T22:45:24.615Z,71.33
2023-07-03T22:48:27.747Z,70.15
2023-07-03T22:51:32.253Z,70.26
2023-07-03T22:54:35.710Z,70.10
2023-07-03T22:57:38.569Z,69.49
2023-07-03T23:00:41.723Z,69.55
2023-07-03T23:03:44.769Z,69.33
2023-07-03T23:06:48.576Z,70.89
2023-07-03T23:09:51.829Z,70.79
2023-07-03T23:12:54.927Z,70.01
2023-07-03T23:16:05.915Z,70.10
2023-07-03T23:19:09.767Z,69.80
2023-07-03T23:22:12.550Z,70.44
2023-07-03T23:25:15.747Z,71.58
2023-07-03T23:28:18.784Z,71.74
2023-07-03T23:31:21.940Z,71.76
2023-07-03T23:34:24.954Z,71.73
2023-07-03T23:37:28.026Z,72.41
2023-07-03T23:40:32.210Z,72.93
2023-07-03T23:43:36.549Z,73.15
2023-07-03T23:46:39.443Z,72.52
2023-07-03T23:49:43.122Z,73.04
2023-07-03T23:52:47.399Z,74.64
2023-07-03T23:55:51.845Z,74.38
2023-07-03T23:58:54.647Z,74.66
